sensor_id;sensor_type;location;lat;lon;timestamp;temperature;humidity
66871;DHT22;53780;44.998;9.926;2023-04-15T00:00:37;12.78;37.21
66871;DHT22;53780;44.998;9.926;2023-04-15T00:03:41;12.78;37.21
66871;DHT22;53780;44.998;9.926;2023-04-15T00:06:51;12.78;36.97
66871;DHT22;53780;44.998;9.926;2023-04-15T00:09:56;12.78;37.08
66871;DHT22;53780;44.998;9.926;2023-04-15T00:13:00;12.80;37.39
66871;DHT22;53780;44.998;9.926;2023-04-15T00:16:05;12.85;37.05
66871;DHT22;53780;44.998;9.926;2023-04-15T00:19:11;12.90;41.79
66871;DHT22;53780;44.998;9.926;2023-04-15T00:22:14;12.48;47.42
66871;DHT22;53780;44.998;9.926;2023-04-15T00:25:18;12.12;47.99
66871;DHT22;53780;44.998;9.926;2023-04-15T00:28:22;11.96;46.71
66871;DHT22;53780;44.998;9.926;2023-04-15T00:31:26;11.91;46.49
66871;DHT22;53780;44.998;9.926;2023-04-15T00:34:29;11.96;47.43
66871;DHT22;53780;44.998;9.926;2023-04-15T00:37:33;11.94;49.40
66871;DHT22;53780;44.998;9.926;2023-04-15T00:40:37;11.86;48.70
66871;DHT22;53780;44.998;9.926;2023-04-15T00:43:41;11.77;49.20
66871;DHT22;53780;44.998;9.926;2023-04-15T00:46:47;11.66;49.82
66871;DHT22;53780;44.998;9.926;2023-04-15T00:49:51;11.51;49.16
66871;DHT22;53780;44.998;9.926;2023-04-15T00:52:55;11.39;48.95
66871;DHT22;53780;44.998;9.926;2023-04-15T00:55:59;11.38;50.19
66871;DHT22;53780;44.998;9.926;2023-04-15T00:59:03;11.25;51.52
66871;DHT22;53780;44.998;9.926;2023-04-15T01:02:07;11.25;52.00
66871;DHT22;53780;44.998;9.926;2023-04-15T01:05:11;11.20;51.60
66871;DHT22;53780;44.998;9.926;2023-04-15T01:08:15;11.10;51.83
66871;DHT22;53780;44.998;9.926;2023-04-15T01:11:19;11.01;52.63
66871;DHT22;53780;44.998;9.926;2023-04-15T01:14:24;10.97;53.07
66871;DHT22;53780;44.998;9.926;2023-04-15T01:17:28;10.99;53.03
66871;DHT22;53780;44.998;9.926;2023-04-15T01:20:33;10.97;53.12
66871;DHT22;53780;44.998;9.926;2023-04-15T01:23:38;10.93;53.83
66871;DHT22;53780;44.998;9.926;2023-04-15T01:26:42;10.81;54.04
66871;DHT22;53780;44.998;9.926;2023-04-15T01:29:46;10.72;53.44
66871;DHT22;53780;44.998;9.926;2023-04-15T01:32:50;10.67;53.25
66871;DHT22;53780;44.998;9.926;2023-04-15T01:36:15;10.67;53.73
66871;DHT22;53780;44.998;9.926;2023-04-15T01:39:18;10.59;53.90
66871;DHT22;53780;44.998;9.926;2023-04-15T01:42:24;10.44;55.41
66871;DHT22;53780;44.998;9.926;2023-04-15T01:45:30;10.22;55.83
66871;DHT22;53780;44.998;9.926;2023-04-15T01:48:35;10.18;55.92
66871;DHT22;53780;44.998;9.926;2023-04-15T01:51:41;10.25;55.44
66871;DHT22;53780;44.998;9.926;2023-04-15T01:54:46;10.25;56.01
66871;DHT22;53780;44.998;9.926;2023-04-15T01:57:51;10.12;56.28
66871;DHT22;53780;44.998;9.926;2023-04-15T02:00:56;10.00;57.09
66871;DHT22;53780;44.998;9.926;2023-04-15T02:04:02;9.98;57.48
66871;DHT22;53780;44.998;9.926;2023-04-15T02:07:09;9.97;57.51
66871;DHT22;53780;44.998;9.926;2023-04-15T02:10:14;9.93;57.70
66871;DHT22;53780;44.998;9.926;2023-04-15T02:13:21;9.89;57.14
66871;DHT22;53780;44.998;9.926;2023-04-15T02:16:27;9.81;57.12
66871;DHT22;53780;44.998;9.926;2023-04-15T02:19:35;9.73;57.15
66871;DHT22;53780;44.998;9.926;2023-04-15T02:22:41;9.59;58.14
66871;DHT22;53780;44.998;9.926;2023-04-15T02:25:47;9.59;57.91
66871;DHT22;53780;44.998;9.926;2023-04-15T02:28:52;9.53;58.54
66871;DHT22;53780;44.998;9.926;2023-04-15T02:31:56;9.49;58.94
66871;DHT22;53780;44.998;9.926;2023-04-15T02:35:06;9.53;59.07
66871;DHT22;53780;44.998;9.926;2023-04-15T02:38:13;9.56;59.45
66871;DHT22;53780;44.998;9.926;2023-04-15T02:41:20;9.55;59.66
66871;DHT22;53780;44.998;9.926;2023-04-15T02:44:29;9.52;59.65
66871;DHT22;53780;44.998;9.926;2023-04-15T02:47:39;9.47;60.01
66871;DHT22;53780;44.998;9.926;2023-04-15T02:50:48;9.43;60.13
66871;DHT22;53780;44.998;9.926;2023-04-15T02:53:54;9.42;60.07
66871;DHT22;53780;44.998;9.926;2023-04-15T02:57:00;9.35;60.29
66871;DHT22;53780;44.998;9.926;2023-04-15T03:00:06;9.36;60.45
66871;DHT22;53780;44.998;9.926;2023-04-15T03:03:15;9.31;61.55
66871;DHT22;53780;44.998;9.926;2023-04-15T03:06:20;9.26;62.29
66871;DHT22;53780;44.998;9.926;2023-04-15T03:09:28;9.22;62.08
66871;DHT22;53780;44.998;9.926;2023-04-15T03:12:33;9.26;61.84
66871;DHT22;53780;44.998;9.926;2023-04-15T03:15:38;9.32;62.44
66871;DHT22;53780;44.998;9.926;2023-04-15T03:18:44;9.47;62.73
66871;DHT22;53780;44.998;9.926;2023-04-15T03:21:49;9.56;63.33
66871;DHT22;53780;44.998;9.926;2023-04-15T03:24:54;9.59;63.14
66871;DHT22;53780;44.998;9.926;2023-04-15T03:27:59;9.53;63.35
66871;DHT22;53780;44.998;9.926;2023-04-15T03:31:05;9.36;63.13
66871;DHT22;53780;44.998;9.926;2023-04-15T03:34:10;9.39;62.68
66871;DHT22;53780;44.998;9.926;2023-04-15T03:37:15;9.50;61.81
66871;DHT22;53780;44.998;9.926;2023-04-15T03:40:20;9.45;62.00
66871;DHT22;53780;44.998;9.926;2023-04-15T03:43:25;9.35;62.03
66871;DHT22;53780;44.998;9.926;2023-04-15T03:46:30;9.18;61.58
66871;DHT22;53780;44.998;9.926;2023-04-15T03:49:36;8.98;61.94
66871;DHT22;53780;44.998;9.926;2023-04-15T03:52:43;8.90;61.73
66871;DHT22;53780;44.998;9.926;2023-04-15T03:55:48;8.74;61.01
66871;DHT22;53780;44.998;9.926;2023-04-15T03:58:54;8.64;60.98
66871;DHT22;53780;44.998;9.926;2023-04-15T04:01:59;8.67;60.44
66871;DHT22;53780;44.998;9.926;2023-04-15T04:05:04;8.61;60.88
66871;DHT22;53780;44.998;9.926;2023-04-15T04:08:09;8.63;61.14
66871;DHT22;53780;44.998;9.926;2023-04-15T04:11:17;8.50;61.39
66871;DHT22;53780;44.998;9.926;2023-04-15T04:14:22;8.38;61.74
66871;DHT22;53780;44.998;9.926;2023-04-15T04:17:33;8.39;61.86
66871;DHT22;53780;44.998;9.926;2023-04-15T04:20:38;8.39;62.20
66871;DHT22;53780;44.998;9.926;2023-04-15T04:23:44;8.33;62.63
66871;DHT22;53780;44.998;9.926;2023-04-15T04:26:49;8.36;62.91
66871;DHT22;53780;44.998;9.926;2023-04-15T04:29:54;8.36;62.92
66871;DHT22;53780;44.998;9.926;2023-04-15T04:32:59;8.38;63.14
66871;DHT22;53780;44.998;9.926;2023-04-15T04:36:05;8.32;63.22
66871;DHT22;53780;44.998;9.926;2023-04-15T04:39:10;8.18;64.18
66871;DHT22;53780;44.998;9.926;2023-04-15T04:42:16;8.08;64.43
66871;DHT22;53780;44.998;9.926;2023-04-15T04:45:21;8.04;64.77
66871;DHT22;53780;44.998;9.926;2023-04-15T04:48:26;8.09;65.15
66871;DHT22;53780;44.998;9.926;2023-04-15T04:51:31;8.06;66.00
66871;DHT22;53780;44.998;9.926;2023-04-15T04:54:36;8.02;66.57
66871;DHT22;53780;44.998;9.926;2023-04-15T04:57:42;7.84;68.25
66871;DHT22;53780;44.998;9.926;2023-04-15T05:00:47;8.05;69.02
66871;DHT22;53780;44.998;9.926;2023-04-15T05:03:54;8.31;69.70
66871;DHT22;53780;44.998;9.926;2023-04-15T05:06:59;8.54;69.98
66871;DHT22;53780;44.998;9.926;2023-04-15T05:10:05;8.70;69.80
66871;DHT22;53780;44.998;9.926;2023-04-15T05:13:10;8.63;70.40
66871;DHT22;53780;44.998;9.926;2023-04-15T05:16:16;8.76;70.32
66871;DHT22;53780;44.998;9.926;2023-04-15T05:19:21;8.81;71.02
66871;DHT22;53780;44.998;9.926;2023-04-15T05:22:26;8.84;72.05
66871;DHT22;53780;44.998;9.926;2023-04-15T05:25:32;9.03;72.20
66871;DHT22;53780;44.998;9.926;2023-04-15T05:28:37;9.11;71.94
66871;DHT22;53780;44.998;9.926;2023-04-15T05:31:42;9.24;71.76
66871;DHT22;53780;44.998;9.926;2023-04-15T05:34:47;9.22;71.82
66871;DHT22;53780;44.998;9.926;2023-04-15T05:37:52;9.17;71.29
66871;DHT22;53780;44.998;9.926;2023-04-15T05:40:57;9.22;71.75
66871;DHT22;53780;44.998;9.926;2023-04-15T05:44:03;9.40;71.79
66871;DHT22;53780;44.998;9.926;2023-04-15T05:47:08;9.38;71.94
66871;DHT22;53780;44.998;9.926;2023-04-15T05:50:14;9.59;71.18
66871;DHT22;53780;44.998;9.926;2023-04-15T05:53:20;9.89;71.91
66871;DHT22;53780;44.998;9.926;2023-04-15T05:56:25;10.39;70.78
66871;DHT22;53780;44.998;9.926;2023-04-15T05:59:31;10.92;69.76
66871;DHT22;53780;44.998;9.926;2023-04-15T06:02:36;11.45;68.03
66871;DHT22;53780;44.998;9.926;2023-04-15T06:05:41;11.94;66.16
66871;DHT22;53780;44.998;9.926;2023-04-15T06:08:46;12.37;64.19
66871;DHT22;53780;44.998;9.926;2023-04-15T06:11:51;12.69;62.35
66871;DHT22;53780;44.998;9.926;2023-04-15T06:14:57;13.09;61.33
66871;DHT22;53780;44.998;9.926;2023-04-15T06:18:01;13.31;60.50
66871;DHT22;53780;44.998;9.926;2023-04-15T06:21:06;13.69;59.56
66871;DHT22;53780;44.998;9.926;2023-04-15T06:24:11;13.95;57.77
66871;DHT22;53780;44.998;9.926;2023-04-15T06:27:17;13.89;58.04
66871;DHT22;53780;44.998;9.926;2023-04-15T06:30:23;13.83;58.17
66871;DHT22;53780;44.998;9.926;2023-04-15T06:33:28;13.82;58.70
66871;DHT22;53780;44.998;9.926;2023-04-15T06:36:33;13.79;58.27
66871;DHT22;53780;44.998;9.926;2023-04-15T06:39:37;13.68;58.42
66871;DHT22;53780;44.998;9.926;2023-04-15T06:42:43;13.59;58.47
66871;DHT22;53780;44.998;9.926;2023-04-15T06:45:48;13.58;58.55
66871;DHT22;53780;44.998;9.926;2023-04-15T06:48:55;13.48;58.74
66871;DHT22;53780;44.998;9.926;2023-04-15T06:52:01;13.26;60.13
66871;DHT22;53780;44.998;9.926;2023-04-15T06:55:07;13.34;61.09
66871;DHT22;53780;44.998;9.926;2023-04-15T06:58:12;13.48;59.82
66871;DHT22;53780;44.998;9.926;2023-04-15T07:01:17;13.75;59.75
66871;DHT22;53780;44.998;9.926;2023-04-15T07:04:23;13.85;58.61
66871;DHT22;53780;44.998;9.926;2023-04-15T07:07:29;15.29;54.36
66871;DHT22;53780;44.998;9.926;2023-04-15T07:10:35;17.43;50.21
66871;DHT22;53780;44.998;9.926;2023-04-15T07:13:40;19.73;44.44
66871;DHT22;53780;44.998;9.926;2023-04-15T07:16:46;20.93;41.76
66871;DHT22;53780;44.998;9.926;2023-04-15T07:19:51;22.65;37.07
66871;DHT22;53780;44.998;9.926;2023-04-15T07:22:56;22.33;36.87
66871;DHT22;53780;44.998;9.926;2023-04-15T07:26:02;22.37;36.57
66871;DHT22;53780;44.998;9.926;2023-04-15T07:29:07;23.13;36.05
66871;DHT22;53780;44.998;9.926;2023-04-15T07:32:12;26.43;32.00
66871;DHT22;53780;44.998;9.926;2023-04-15T07:35:17;27.28;30.39
66871;DHT22;53780;44.998;9.926;2023-04-15T07:38:25;25.62;31.72
66871;DHT22;53780;44.998;9.926;2023-04-15T07:41:31;24.57;34.41
66871;DHT22;53780;44.998;9.926;2023-04-15T07:44:36;23.10;36.34
66871;DHT22;53780;44.998;9.926;2023-04-15T07:47:41;23.47;36.91
66871;DHT22;53780;44.998;9.926;2023-04-15T07:50:47;20.57;41.52
66871;DHT22;53780;44.998;9.926;2023-04-15T07:53:52;18.64;46.21
66871;DHT22;53780;44.998;9.926;2023-04-15T07:56:58;20.56;42.13
66871;DHT22;53780;44.998;9.926;2023-04-15T08:00:04;20.11;42.94
66871;DHT22;53780;44.998;9.926;2023-04-15T08:03:17;21.06;41.68
66871;DHT22;53780;44.998;9.926;2023-04-15T08:06:25;21.55;40.95
66871;DHT22;53780;44.998;9.926;2023-04-15T08:09:31;22.65;38.86
66871;DHT22;53780;44.998;9.926;2023-04-15T08:12:36;21.97;39.37
66871;DHT22;53780;44.998;9.926;2023-04-15T08:15:41;22.89;37.80
66871;DHT22;53780;44.998;9.926;2023-04-15T08:18:48;23.51;37.33
66871;DHT22;53780;44.998;9.926;2023-04-15T08:21:53;22.76;37.25
66871;DHT22;53780;44.998;9.926;2023-04-15T08:25:01;24.96;34.79
66871;DHT22;53780;44.998;9.926;2023-04-15T08:28:07;26.33;33.15
66871;DHT22;53780;44.998;9.926;2023-04-15T08:31:14;28.20;29.63
66871;DHT22;53780;44.998;9.926;2023-04-15T08:34:20;31.49;24.82
66871;DHT22;53780;44.998;9.926;2023-04-15T08:37:25;34.20;23.24
66871;DHT22;53780;44.998;9.926;2023-04-15T08:40:39;35.16;21.92
66871;DHT22;53780;44.998;9.926;2023-04-15T08:44:00;36.16;21.13
66871;DHT22;53780;44.998;9.926;2023-04-15T08:47:07;35.18;22.43
66871;DHT22;53780;44.998;9.926;2023-04-15T08:50:13;36.10;20.55
66871;DHT22;53780;44.998;9.926;2023-04-15T08:53:20;35.43;19.76
66871;DHT22;53780;44.998;9.926;2023-04-15T08:56:25;33.93;21.69
66871;DHT22;53780;44.998;9.926;2023-04-15T08:59:32;32.28;24.62
66871;DHT22;53780;44.998;9.926;2023-04-15T09:02:37;34.86;21.91
66871;DHT22;53780;44.998;9.926;2023-04-15T09:05:43;35.51;21.83
66871;DHT22;53780;44.998;9.926;2023-04-15T09:08:50;34.00;22.33
66871;DHT22;53780;44.998;9.926;2023-04-15T09:11:55;33.66;22.40
66871;DHT22;53780;44.998;9.926;2023-04-15T09:15:02;36.40;20.46
66871;DHT22;53780;44.998;9.926;2023-04-15T09:18:10;36.54;20.79
66871;DHT22;53780;44.998;9.926;2023-04-15T09:21:17;35.11;21.33
66871;DHT22;53780;44.998;9.926;2023-04-15T09:24:24;34.66;21.43
66871;DHT22;53780;44.998;9.926;2023-04-15T09:27:35;34.82;21.82
66871;DHT22;53780;44.998;9.926;2023-04-15T09:30:41;33.68;22.97
66871;DHT22;53780;44.998;9.926;2023-04-15T09:33:55;36.09;21.38
66871;DHT22;53780;44.998;9.926;2023-04-15T09:37:00;36.02;21.86
66871;DHT22;53780;44.998;9.926;2023-04-15T09:40:06;33.42;23.34
66871;DHT22;53780;44.998;9.926;2023-04-15T09:43:13;34.71;22.87
66871;DHT22;53780;44.998;9.926;2023-04-15T09:46:39;35.37;23.37
66871;DHT22;53780;44.998;9.926;2023-04-15T09:49:58;36.73;21.81
66871;DHT22;53780;44.998;9.926;2023-04-15T09:53:08;32.98;24.35
66871;DHT22;53780;44.998;9.926;2023-04-15T09:56:14;34.38;22.57
66871;DHT22;53780;44.998;9.926;2023-04-15T09:59:19;36.03;22.31
66871;DHT22;53780;44.998;9.926;2023-04-15T10:02:24;35.89;22.32
66871;DHT22;53780;44.998;9.926;2023-04-15T10:05:31;36.18;21.19
66871;DHT22;53780;44.998;9.926;2023-04-15T10:08:37;34.08;22.38
66871;DHT22;53780;44.998;9.926;2023-04-15T10:11:43;35.16;22.46
66871;DHT22;53780;44.998;9.926;2023-04-15T10:14:57;34.72;23.78
66871;DHT22;53780;44.998;9.926;2023-04-15T10:18:04;34.04;23.76
66871;DHT22;53780;44.998;9.926;2023-04-15T10:21:12;31.43;25.21
66871;DHT22;53780;44.998;9.926;2023-04-15T10:24:20;32.83;24.34
66871;DHT22;53780;44.998;9.926;2023-04-15T10:27:26;33.22;23.64
66871;DHT22;53780;44.998;9.926;2023-04-15T10:30:32;28.41;28.01
66871;DHT22;53780;44.998;9.926;2023-04-15T10:33:38;27.66;29.69
66871;DHT22;53780;44.998;9.926;2023-04-15T10:36:43;25.90;30.92
66871;DHT22;53780;44.998;9.926;2023-04-15T10:39:50;26.15;29.50
66871;DHT22;53780;44.998;9.926;2023-04-15T10:43:02;26.48;29.91
66871;DHT22;53780;44.998;9.926;2023-04-15T10:46:07;24.17;34.55
66871;DHT22;53780;44.998;9.926;2023-04-15T10:49:24;24.81;33.78
66871;DHT22;53780;44.998;9.926;2023-04-15T10:52:29;25.32;32.02
66871;DHT22;53780;44.998;9.926;2023-04-15T10:55:34;24.49;33.39
66871;DHT22;53780;44.998;9.926;2023-04-15T10:58:43;23.27;36.19
66871;DHT22;53780;44.998;9.926;2023-04-15T11:01:50;23.19;38.11
66871;DHT22;53780;44.998;9.926;2023-04-15T11:04:57;23.26;36.72
66871;DHT22;53780;44.998;9.926;2023-04-15T11:08:02;23.75;34.07
66871;DHT22;53780;44.998;9.926;2023-04-15T11:11:08;23.92;33.61
66871;DHT22;53780;44.998;9.926;2023-04-15T11:14:14;23.95;35.67
66871;DHT22;53780;44.998;9.926;2023-04-15T11:17:27;23.79;37.24
66871;DHT22;53780;44.998;9.926;2023-04-15T11:20:35;23.71;35.78
66871;DHT22;53780;44.998;9.926;2023-04-15T11:23:41;23.19;36.07
66871;DHT22;53780;44.998;9.926;2023-04-15T11:26:56;23.26;36.51
66871;DHT22;53780;44.998;9.926;2023-04-15T11:30:17;21.97;37.90
66871;DHT22;53780;44.998;9.926;2023-04-15T11:33:23;22.10;37.11
66871;DHT22;53780;44.998;9.926;2023-04-15T11:36:29;22.44;38.29
66871;DHT22;53780;44.998;9.926;2023-04-15T11:39:36;22.65;37.53
66871;DHT22;53780;44.998;9.926;2023-04-15T11:42:41;21.49;41.08
66871;DHT22;53780;44.998;9.926;2023-04-15T11:45:49;21.63;39.51
66871;DHT22;53780;44.998;9.926;2023-04-15T11:48:55;21.78;40.24
66871;DHT22;53780;44.998;9.926;2023-04-15T11:52:00;21.61;39.90
66871;DHT22;53780;44.998;9.926;2023-04-15T11:55:06;21.59;40.26
66871;DHT22;53780;44.998;9.926;2023-04-15T11:58:14;21.49;41.94
66871;DHT22;53780;44.998;9.926;2023-04-15T12:01:19;20.96;42.25
66871;DHT22;53780;44.998;9.926;2023-04-15T12:04:23;21.18;41.82
66871;DHT22;53780;44.998;9.926;2023-04-15T12:07:26;21.89;38.78
66871;DHT22;53780;44.998;9.926;2023-04-15T12:10:31;21.90;39.30
66871;DHT22;53780;44.998;9.926;2023-04-15T12:13:35;21.96;37.69
66871;DHT22;53780;44.998;9.926;2023-04-15T12:19:44;21.89;39.59
66871;DHT22;53780;44.998;9.926;2023-04-15T12:22:48;21.67;36.46
66871;DHT22;53780;44.998;9.926;2023-04-15T12:25:51;21.85;38.49
66871;DHT22;53780;44.998;9.926;2023-04-15T12:29:06;22.33;38.75
66871;DHT22;53780;44.998;9.926;2023-04-15T12:32:12;21.90;40.41
66871;DHT22;53780;44.998;9.926;2023-04-15T12:35:16;22.17;40.04
66871;DHT22;53780;44.998;9.926;2023-04-15T12:38:22;21.56;40.22
66871;DHT22;53780;44.998;9.926;2023-04-15T12:41:26;21.54;39.78
66871;DHT22;53780;44.998;9.926;2023-04-15T12:44:30;21.59;40.76
66871;DHT22;53780;44.998;9.926;2023-04-15T12:47:35;21.92;38.67
66871;DHT22;53780;44.998;9.926;2023-04-15T12:50:39;22.07;39.45
66871;DHT22;53780;44.998;9.926;2023-04-15T12:53:43;22.73;34.60
66871;DHT22;53780;44.998;9.926;2023-04-15T12:56:49;21.35;36.89
66871;DHT22;53780;44.998;9.926;2023-04-15T12:59:53;20.77;38.61
66871;DHT22;53780;44.998;9.926;2023-04-15T13:02:56;21.97;37.25
66871;DHT22;53780;44.998;9.926;2023-04-15T13:06:00;21.17;39.92
66871;DHT22;53780;44.998;9.926;2023-04-15T13:09:05;20.48;40.63
66871;DHT22;53780;44.998;9.926;2023-04-15T13:12:09;21.11;39.17
66871;DHT22;53780;44.998;9.926;2023-04-15T13:15:16;21.41;39.04
66871;DHT22;53780;44.998;9.926;2023-04-15T13:18:23;21.81;37.82
66871;DHT22;53780;44.998;9.926;2023-04-15T13:21:27;21.54;38.13
66871;DHT22;53780;44.998;9.926;2023-04-15T13:24:31;21.78;38.30
66871;DHT22;53780;44.998;9.926;2023-04-15T13:27:34;22.06;39.09
66871;DHT22;53780;44.998;9.926;2023-04-15T13:30:38;21.56;37.85
66871;DHT22;53780;44.998;9.926;2023-04-15T13:33:42;21.38;41.36
66871;DHT22;53780;44.998;9.926;2023-04-15T13:36:46;20.84;39.99
66871;DHT22;53780;44.998;9.926;2023-04-15T13:39:50;20.97;38.57
66871;DHT22;53780;44.998;9.926;2023-04-15T13:42:54;21.24;38.17
66871;DHT22;53780;44.998;9.926;2023-04-15T13:45:58;20.46;41.11
66871;DHT22;53780;44.998;9.926;2023-04-15T13:49:02;20.91;40.40
66871;DHT22;53780;44.998;9.926;2023-04-15T13:52:05;20.97;37.89
66871;DHT22;53780;44.998;9.926;2023-04-15T13:55:09;21.14;39.05
66871;DHT22;53780;44.998;9.926;2023-04-15T13:58:13;21.24;37.52
66871;DHT22;53780;44.998;9.926;2023-04-15T14:01:16;20.63;39.90
66871;DHT22;53780;44.998;9.926;2023-04-15T14:04:20;20.59;40.32
66871;DHT22;53780;44.998;9.926;2023-04-15T14:07:24;20.72;39.84
66871;DHT22;53780;44.998;9.926;2023-04-15T14:10:28;20.51;39.88
66871;DHT22;53780;44.998;9.926;2023-04-15T14:13:32;20.49;39.53
66871;DHT22;53780;44.998;9.926;2023-04-15T14:16:35;20.66;40.80
66871;DHT22;53780;44.998;9.926;2023-04-15T14:19:39;20.84;40.02
66871;DHT22;53780;44.998;9.926;2023-04-15T14:22:43;20.94;40.36
66871;DHT22;53780;44.998;9.926;2023-04-15T14:25:49;20.87;40.76
66871;DHT22;53780;44.998;9.926;2023-04-15T14:28:53;20.31;40.06
66871;DHT22;53780;44.998;9.926;2023-04-15T14:31:57;20.20;40.05
66871;DHT22;53780;44.998;9.926;2023-04-15T14:35:01;20.25;39.61
66871;DHT22;53780;44.998;9.926;2023-04-15T14:38:06;20.06;40.15
66871;DHT22;53780;44.998;9.926;2023-04-15T14:41:13;19.87;41.30
66871;DHT22;53780;44.998;9.926;2023-04-15T14:44:16;20.17;38.82
66871;DHT22;53780;44.998;9.926;2023-04-15T14:47:20;20.04;38.34
66871;DHT22;53780;44.998;9.926;2023-04-15T14:50:24;20.29;38.42
66871;DHT22;53780;44.998;9.926;2023-04-15T14:53:28;20.24;35.82
66871;DHT22;53780;44.998;9.926;2023-04-15T14:56:32;19.79;33.96
66871;DHT22;53780;44.998;9.926;2023-04-15T14:59:35;20.14;34.95
66871;DHT22;53780;44.998;9.926;2023-04-15T15:02:40;20.35;37.08
66871;DHT22;53780;44.998;9.926;2023-04-15T15:05:45;20.56;36.72
66871;DHT22;53780;44.998;9.926;2023-04-15T15:08:49;20.69;37.31
66871;DHT22;53780;44.998;9.926;2023-04-15T15:11:53;20.72;36.38
66871;DHT22;53780;44.998;9.926;2023-04-15T15:14:59;20.72;37.59
66871;DHT22;53780;44.998;9.926;2023-04-15T15:18:03;20.34;37.24
66871;DHT22;53780;44.998;9.926;2023-04-15T15:21:07;20.48;37.72
66871;DHT22;53780;44.998;9.926;2023-04-15T15:24:11;20.44;38.28
66871;DHT22;53780;44.998;9.926;2023-04-15T15:27:14;20.51;41.25
66871;DHT22;53780;44.998;9.926;2023-04-15T15:30:18;20.28;41.06
66871;DHT22;53780;44.998;9.926;2023-04-15T15:33:22;19.62;40.48
66871;DHT22;53780;44.998;9.926;2023-04-15T15:36:26;19.76;41.64
66871;DHT22;53780;44.998;9.926;2023-04-15T15:39:30;19.60;40.84
66871;DHT22;53780;44.998;9.926;2023-04-15T15:42:34;19.67;41.06
66871;DHT22;53780;44.998;9.926;2023-04-15T15:45:39;19.32;40.83
66871;DHT22;53780;44.998;9.926;2023-04-15T15:48:43;19.24;42.12
66871;DHT22;53780;44.998;9.926;2023-04-15T15:51:47;19.42;41.86
66871;DHT22;53780;44.998;9.926;2023-04-15T15:54:52;19.52;41.92
66871;DHT22;53780;44.998;9.926;2023-04-15T15:57:55;19.76;42.61
66871;DHT22;53780;44.998;9.926;2023-04-15T16:00:59;19.73;43.92
66871;DHT22;53780;44.998;9.926;2023-04-15T16:04:04;19.62;43.06
66871;DHT22;53780;44.998;9.926;2023-04-15T16:07:09;19.38;44.26
66871;DHT22;53780;44.998;9.926;2023-04-15T16:10:14;19.33;43.78
66871;DHT22;53780;44.998;9.926;2023-04-15T16:13:18;19.38;43.49
66871;DHT22;53780;44.998;9.926;2023-04-15T16:16:22;19.29;43.87
66871;DHT22;53780;44.998;9.926;2023-04-15T16:19:26;19.18;44.15
66871;DHT22;53780;44.998;9.926;2023-04-15T16:22:34;19.03;44.29
66871;DHT22;53780;44.998;9.926;2023-04-15T16:25:40;18.97;44.87
66871;DHT22;53780;44.998;9.926;2023-04-15T16:28:44;18.95;44.62
66871;DHT22;53780;44.998;9.926;2023-04-15T16:31:48;18.83;45.27
66871;DHT22;53780;44.998;9.926;2023-04-15T16:34:52;18.84;44.84
66871;DHT22;53780;44.998;9.926;2023-04-15T16:37:55;18.91;43.65
66871;DHT22;53780;44.998;9.926;2023-04-15T16:41:00;18.90;43.86
66871;DHT22;53780;44.998;9.926;2023-04-15T16:44:05;18.95;44.05
66871;DHT22;53780;44.998;9.926;2023-04-15T16:47:17;18.76;44.56
66871;DHT22;53780;44.998;9.926;2023-04-15T16:50:27;18.59;45.20
66871;DHT22;53780;44.998;9.926;2023-04-15T16:53:31;18.50;45.44
66871;DHT22;53780;44.998;9.926;2023-04-15T16:56:35;18.48;45.88
66871;DHT22;53780;44.998;9.926;2023-04-15T16:59:39;18.25;46.96
66871;DHT22;53780;44.998;9.926;2023-04-15T17:02:43;18.12;47.59
66871;DHT22;53780;44.998;9.926;2023-04-15T17:05:47;18.01;47.47
66871;DHT22;53780;44.998;9.926;2023-04-15T17:08:51;17.94;47.53
66871;DHT22;53780;44.998;9.926;2023-04-15T17:11:54;17.97;48.28
66871;DHT22;53780;44.998;9.926;2023-04-15T17:14:58;18.00;48.57
66871;DHT22;53780;44.998;9.926;2023-04-15T17:18:03;18.01;48.73
66871;DHT22;53780;44.998;9.926;2023-04-15T17:21:10;18.02;48.98
66871;DHT22;53780;44.998;9.926;2023-04-15T17:24:17;17.92;49.80
66871;DHT22;53780;44.998;9.926;2023-04-15T17:27:26;17.81;48.97
66871;DHT22;53780;44.998;9.926;2023-04-15T17:30:31;17.71;49.50
66871;DHT22;53780;44.998;9.926;2023-04-15T17:33:56;17.71;50.05
66871;DHT22;53780;44.998;9.926;2023-04-15T17:37:19;17.62;50.07
66871;DHT22;53780;44.998;9.926;2023-04-15T17:40:43;17.49;50.22
66871;DHT22;53780;44.998;9.926;2023-04-15T17:44:07;17.57;50.14
66871;DHT22;53780;44.998;9.926;2023-04-15T17:47:31;17.50;50.30
66871;DHT22;53780;44.998;9.926;2023-04-15T17:50:55;17.43;50.91
66871;DHT22;53780;44.998;9.926;2023-04-15T17:54:18;17.30;52.00
66871;DHT22;53780;44.998;9.926;2023-04-15T17:57:44;17.15;53.61
66871;DHT22;53780;44.998;9.926;2023-04-15T18:01:08;17.02;55.42
66871;DHT22;53780;44.998;9.926;2023-04-15T18:04:32;16.80;56.46
66871;DHT22;53780;44.998;9.926;2023-04-15T18:07:56;16.64;56.84
66871;DHT22;53780;44.998;9.926;2023-04-15T18:11:19;16.74;56.01
66871;DHT22;53780;44.998;9.926;2023-04-15T18:14:43;16.72;56.62
66871;DHT22;53780;44.998;9.926;2023-04-15T18:18:07;16.52;57.80
66871;DHT22;53780;44.998;9.926;2023-04-15T18:21:10;16.53;58.48
66871;DHT22;53780;44.998;9.926;2023-04-15T18:24:14;16.44;59.88
66871;DHT22;53780;44.998;9.926;2023-04-15T18:27:18;16.40;57.57
66871;DHT22;53780;44.998;9.926;2023-04-15T18:30:22;16.25;58.53
66871;DHT22;53780;44.998;9.926;2023-04-15T18:33:26;15.98;58.23
66871;DHT22;53780;44.998;9.926;2023-04-15T18:36:30;15.61;63.23
66871;DHT22;53780;44.998;9.926;2023-04-15T18:39:34;15.39;64.44
66871;DHT22;53780;44.998;9.926;2023-04-15T18:42:38;15.33;64.84
66871;DHT22;53780;44.998;9.926;2023-04-15T18:45:42;15.22;64.63
66871;DHT22;53780;44.998;9.926;2023-04-15T18:48:46;15.07;64.83
66871;DHT22;53780;44.998;9.926;2023-04-15T18:51:50;15.10;67.75
66871;DHT22;53780;44.998;9.926;2023-04-15T18:54:54;15.10;68.75
66871;DHT22;53780;44.998;9.926;2023-04-15T18:57:57;15.09;69.94
66871;DHT22;53780;44.998;9.926;2023-04-15T19:01:01;15.00;69.03
66871;DHT22;53780;44.998;9.926;2023-04-15T19:04:05;14.98;68.88
66871;DHT22;53780;44.998;9.926;2023-04-15T19:07:09;14.96;69.36
66871;DHT22;53780;44.998;9.926;2023-04-15T19:10:13;14.91;68.80
66871;DHT22;53780;44.998;9.926;2023-04-15T19:13:16;14.79;69.35
66871;DHT22;53780;44.998;9.926;2023-04-15T19:16:21;14.58;69.96
66871;DHT22;53780;44.998;9.926;2023-04-15T19:19:25;14.65;69.32
66871;DHT22;53780;44.998;9.926;2023-04-15T19:22:28;14.78;68.71
66871;DHT22;53780;44.998;9.926;2023-04-15T19:25:33;14.74;68.99
66871;DHT22;53780;44.998;9.926;2023-04-15T19:28:37;14.81;68.31
66871;DHT22;53780;44.998;9.926;2023-04-15T19:31:40;14.72;68.12
66871;DHT22;53780;44.998;9.926;2023-04-15T19:34:44;14.71;67.61
66871;DHT22;53780;44.998;9.926;2023-04-15T19:37:49;14.78;68.08
66871;DHT22;53780;44.998;9.926;2023-04-15T19:40:53;14.72;67.37
66871;DHT22;53780;44.998;9.926;2023-04-15T19:43:56;14.84;65.60